Time;durP1;ratioP1;P1;durP2;ratioP2;P2;SDS_P1;SDS_P2;PMS_P1;PMS_P2;Temp;Humidity;BMP_temperature;BMP_pressure;BME280_temperature;BME280_humidity;BME280_pressure;Samples;Min_cycle;Max_cycle;Signal;HPM_P1;HPM_P2
2023/01/16 00:01:25;;;;;;;4.33;1.27;;;3.40;1.00;;;;;;5058565;28;20494;-38
2023/01/16 00:03:51;;;;;;;2.87;0.77;;;3.50;1.00;;;;;;5058707;28;20443;-39
2023/01/16 00:06:16;;;;;;;2.20;0.97;;;3.50;1.00;;;;;;5059747;28;20753;-38
2023/01/16 00:08:43;;;;;;;2.60;1.13;;;3.50;1.00;;;;;;5059162;28;20532;-38
2023/01/16 00:11:09;;;;;;;2.10;1.00;;;3.60;1.00;;;;;;5059047;28;20185;-37
2023/01/16 00:13:35;;;;;;;3.63;1.10;;;3.60;1.00;;;;;;5058761;28;20424;-38
2023/01/16 00:16:01;;;;;;;2.40;0.80;;;3.60;1.00;;;;;;5059378;28;20808;-38
2023/01/16 00:18:26;;;;;;;2.23;0.87;;;3.60;99.90;;;;;;5058356;28;20233;-37
2023/01/16 00:20:52;;;;;;;1.97;0.87;;;3.60;99.90;;;;;;5058014;28;20181;-37
2023/01/16 00:23:18;;;;;;;2.40;1.00;;;3.70;99.90;;;;;;5058115;28;20181;-38
2023/01/16 00:25:44;;;;;;;2.60;1.00;;;3.70;99.90;;;;;;5056256;28;20189;-38
2023/01/16 00:28:10;;;;;;;4.50;1.00;;;3.70;99.90;;;;;;5057778;28;20174;-39
2023/01/16 00:30:36;;;;;;;2.27;0.90;;;3.70;99.90;;;;;;5058159;28;20531;-38
2023/01/16 00:33:02;;;;;;;3.30;1.00;;;3.70;99.90;;;;;;5057861;28;20566;-37
2023/01/16 00:35:28;;;;;;;3.37;1.00;;;3.70;99.90;;;;;;5057812;28;20218;-38
2023/01/16 00:37:54;;;;;;;2.00;0.93;;;3.70;99.90;;;;;;5056598;28;20464;-38
2023/01/16 00:40:19;;;;;;;2.97;1.37;;;3.70;99.90;;;;;;5058071;28;20450;-37
2023/01/16 00:42:45;;;;;;;4.70;1.40;;;3.70;99.90;;;;;;5058327;28;20588;-38
2023/01/16 00:45:11;;;;;;;2.80;1.00;;;3.70;99.90;;;;;;5058241;28;20193;-37
2023/01/16 00:47:37;;;;;;;3.97;1.10;;;3.70;99.90;;;;;;5058746;28;20169;-39
2023/01/16 00:50:03;;;;;;;2.13;0.87;;;3.70;99.90;;;;;;5057503;28;20862;-38
2023/01/16 00:52:29;;;;;;;3.47;0.97;;;3.70;99.90;;;;;;5056801;28;20420;-38
2023/01/16 00:54:55;;;;;;;2.27;0.87;;;3.80;99.90;;;;;;5057112;28;20673;-38
2023/01/16 00:57:20;;;;;;;2.83;0.93;;;3.70;99.90;;;;;;5058046;28;20232;-39
2023/01/16 00:59:46;;;;;;;1.20;0.60;;;3.70;92.60;;;;;;5057775;28;20479;-37
2023/01/16 01:02:11;;;;;;;1.93;0.77;;;3.70;94.70;;;;;;5057811;28;20625;-37
2023/01/16 01:04:37;;;;;;;1.30;0.80;;;3.70;99.90;;;;;;5057820;28;20561;-42
2023/01/16 01:07:03;;;;;;;3.40;1.30;;;3.70;99.90;;;;;;5057149;28;20181;-37
2023/01/16 01:09:28;;;;;;;2.33;0.80;;;3.70;99.90;;;;;;5056825;28;20182;-38
2023/01/16 01:11:56;;;;;;;3.77;1.00;;;3.70;99.90;;;;;;5057869;28;20197;-38
2023/01/16 01:14:22;;;;;;;2.30;0.70;;;3.60;99.90;;;;;;5058487;28;20260;-37
2023/01/16 01:16:48;;;;;;;2.73;1.20;;;3.60;99.90;;;;;;5057654;28;20503;-37
2023/01/16 01:19:13;;;;;;;1.73;0.80;;;3.60;99.90;;;;;;5057768;28;20589;-37
2023/01/16 01:21:39;;;;;;;2.90;1.33;;;3.60;99.90;;;;;;5057823;28;20228;-37
2023/01/16 01:24:05;;;;;;;2.13;0.87;;;3.60;99.90;;;;;;5058100;28;20323;-38
2023/01/16 01:26:30;;;;;;;2.20;0.87;;;3.60;99.90;;;;;;5058311;28;20178;-38
2023/01/16 01:28:56;;;;;;;1.83;0.60;;;3.60;99.90;;;;;;5057557;28;20184;-37
2023/01/16 01:31:21;;;;;;;1.97;0.77;;;3.60;99.90;;;;;;5057469;28;20255;-37
2023/01/16 01:33:47;;;;;;;1.50;0.70;;;3.60;99.90;;;;;;5073818;28;20182;-38
2023/01/16 01:36:13;;;;;;;2.17;0.90;;;3.50;99.90;;;;;;5058191;28;20209;-38
2023/01/16 01:38:39;;;;;;;2.27;0.97;;;3.50;99.90;;;;;;5057597;28;20540;-38
2023/01/16 01:41:04;;;;;;;4.87;0.93;;;3.50;99.90;;;;;;5058015;28;20178;-37
2023/01/16 01:43:45;;;;;;;3.43;0.80;;;3.50;99.90;;;;;;5057222;28;20804;-37
2023/01/16 01:46:18;;;;;;;3.70;1.03;;;3.50;99.90;;;;;;5057829;28;20178;-38
2023/01/16 01:48:45;;;;;;;3.83;0.83;;;3.50;99.90;;;;;;5056594;28;20618;-41
2023/01/16 01:51:15;;;;;;;4.90;1.10;;;3.50;99.90;;;;;;5056839;28;20432;-38
2023/01/16 01:53:43;;;;;;;3.50;0.90;;;3.50;99.90;;;;;;5057466;28;20424;-38
2023/01/16 01:56:15;;;;;;;2.07;1.20;;;3.50;99.90;;;;;;5057677;28;20489;-38
2023/01/16 01:58:42;;;;;;;2.53;0.77;;;3.50;99.90;;;;;;5056374;28;20795;-38
2023/01/16 02:01:07;;;;;;;1.53;0.70;;;3.50;99.90;;;;;;5055654;28;20424;-37
2023/01/16 02:04:02;;;;;;;3.70;1.30;;;3.50;99.90;;;;;;5057602;28;20490;-38
2023/01/16 02:06:35;;;;;;;1.87;0.77;;;3.50;99.90;;;;;;5055378;28;20523;-38
2023/01/16 02:09:00;;;;;;;2.37;0.90;;;3.50;99.90;;;;;;5055651;28;20840;-37
2023/01/16 02:11:40;;;;;;;2.70;1.00;;;3.50;99.90;;;;;;5056533;28;20447;-37
2023/01/16 02:14:08;;;;;;;3.00;0.90;;;3.50;99.90;;;;;;5058434;28;20174;-37
2023/01/16 02:19:37;;;;;;;2.67;1.00;;;3.50;99.90;;;;;;5057531;28;20881;-37
2023/01/16 02:22:17;;;;;;;2.80;1.00;;;3.50;99.90;;;;;;5057930;28;20426;-37
2023/01/16 02:25:10;;;;;;;1.70;0.80;;;3.60;99.90;;;;;;5057964;28;20412;-37
2023/01/16 02:28:17;;;;;;;5.13;1.07;;;3.60;99.90;;;;;;5057028;28;20975;-37
2023/01/16 02:31:08;;;;;;;2.77;1.27;;;3.50;99.90;;;;;;4995874;28;20423;-37
2023/01/16 02:34:15;;;;;;;1.93;1.00;;;3.50;99.90;;;;;;5054659;28;20484;-37
2023/01/16 02:36:52;;;;;;;6.03;1.17;;;3.50;99.90;;;;;;5039941;28;20436;-38
2023/01/16 02:39:25;;;;;;;3.97;1.07;;;3.50;99.90;;;;;;5057964;28;20414;-38
2023/01/16 02:42:01;;;;;;;2.37;0.80;;;3.50;99.90;;;;;;5057861;28;20426;-37
2023/01/16 02:44:36;;;;;;;2.10;0.77;;;3.50;99.90;;;;;;5056620;28;20407;-37
2023/01/16 02:47:15;;;;;;;3.47;1.10;;;3.50;99.90;;;;;;5056282;28;20695;-37
2023/01/16 02:49:59;;;;;;;2.50;1.00;;;3.50;99.90;;;;;;5056595;28;20407;-37
2023/01/16 02:52:56;;;;;;;5.90;1.27;;;3.50;99.90;;;;;;5056959;28;20510;-37
2023/01/16 02:55:30;;;;;;;1.60;1.47;;;3.50;99.90;;;;;;5057521;28;20502;-36
2023/01/16 02:57:59;;;;;;;2.33;0.90;;;3.50;99.90;;;;;;5057369;28;20882;-37
2023/01/16 03:00:26;;;;;;;1.50;0.80;;;3.50;99.90;;;;;;5056374;28;20428;-37
2023/01/16 03:02:51;;;;;;;2.53;0.97;;;3.50;99.90;;;;;;5056107;28;20416;-37
2023/01/16 03:05:18;;;;;;;3.27;1.10;;;3.50;99.90;;;;;;5056499;28;20681;-37
2023/01/16 03:08:16;;;;;;;2.20;1.00;;;3.50;99.90;;;;;;5057653;28;20177;-36
2023/01/16 03:10:47;;;;;;;3.27;0.97;;;3.50;99.90;;;;;;5056029;28;20449;-36
2023/01/16 03:13:19;;;;;;;2.70;1.07;;;3.50;99.90;;;;;;5057552;28;20425;-36
2023/01/16 03:15:50;;;;;;;3.27;0.90;;;3.50;99.90;;;;;;5057724;28;20680;-37
2023/01/16 03:18:56;;;;;;;5.07;1.27;;;3.50;99.90;;;;;;5057299;28;20581;-36
2023/01/16 03:21:44;;;;;;;2.63;1.13;;;3.50;99.90;;;;;;5056290;28;20436;-36
2023/01/16 03:24:26;;;;;;;4.90;0.90;;;3.50;99.90;;;;;;5056223;28;20706;-37
2023/01/16 03:26:59;;;;;;;4.40;1.30;;;3.50;99.90;;;;;;5056112;28;20420;-36
2023/01/16 03:29:36;;;;;;;2.93;0.93;;;3.60;99.90;;;;;;5040942;28;20428;-37
2023/01/16 03:32:02;;;;;;;1.93;0.83;;;3.60;99.90;;;;;;5060955;28;20427;-37
2023/01/16 03:34:30;;;;;;;1.77;0.60;;;3.60;99.90;;;;;;5060314;28;20763;-37
2023/01/16 03:37:01;;;;;;;1.30;0.80;;;3.60;99.90;;;;;;5061252;28;20212;-37
2023/01/16 03:39:30;;;;;;;2.57;0.80;;;3.60;99.90;;;;;;5060181;28;20456;-37
2023/01/16 03:42:02;;;;;;;1.67;0.90;;;3.60;99.90;;;;;;5060001;28;20408;-37
2023/01/16 03:44:32;;;;;;;4.10;0.80;;;3.60;99.90;;;;;;5059316;28;20408;-38
2023/01/16 03:47:00;;;;;;;5.03;0.93;;;3.60;99.90;;;;;;5059596;28;20408;-37
2023/01/16 03:49:33;;;;;;;2.13;0.90;;;3.60;99.90;;;;;;5060584;28;20440;-37
2023/01/16 03:52:01;;;;;;;1.70;0.80;;;3.60;99.90;;;;;;5060403;28;20416;-37
2023/01/16 03:54:45;;;;;;;1.40;0.87;;;3.60;99.90;;;;;;5058931;28;20703;-37
2023/01/16 03:57:17;;;;;;;1.83;0.83;;;3.60;99.90;;;;;;5059032;28;20525;-37
2023/01/16 03:59:45;;;;;;;2.20;1.13;;;3.60;99.90;;;;;;5060291;28;20502;-37
2023/01/16 04:02:24;;;;;;;2.03;0.90;;;3.60;99.90;;;;;;5059561;28;20826;-36
2023/01/16 04:04:55;;;;;;;1.50;0.80;;;3.60;99.90;;;;;;5058785;28;20433;-36
2023/01/16 04:07:46;;;;;;;1.27;0.80;;;3.60;43.90;;;;;;5058612;28;20879;-37
2023/01/16 04:10:16;;;;;;;6.90;1.27;;;3.60;24.00;;;;;;5056532;28;20428;-36
2023/01/16 04:12:55;;;;;;;3.03;1.20;;;3.60;1.00;;;;;;5057541;28;20427;-35
2023/01/16 04:15:23;;;;;;;2.17;0.80;;;3.60;1.00;;;;;;5058510;28;20494;-36
2023/01/16 04:17:49;;;;;;;2.07;0.90;;;3.60;1.00;;;;;;5058597;28;20498;-37
2023/01/16 04:20:14;;;;;;;1.30;0.73;;;3.60;1.00;;;;;;5057394;28;20438;-37
2023/01/16 04:22:40;;;;;;;3.73;0.80;;;3.60;1.00;;;;;;5057256;28;20480;-37
2023/01/16 04:25:07;;;;;;;1.40;0.83;;;3.60;1.00;;;;;;5056537;28;20277;-36
2023/01/16 04:27:34;;;;;;;1.50;0.60;;;3.60;1.00;;;;;;5056482;28;20243;-37
2023/01/16 04:29:59;;;;;;;1.80;0.90;;;3.60;1.00;;;;;;5056094;28;20424;-38
2023/01/16 04:32:25;;;;;;;2.97;0.90;;;3.60;1.00;;;;;;5056684;28;20742;-37
2023/01/16 04:34:50;;;;;;;2.40;0.90;;;3.60;1.00;;;;;;5057441;28;20182;-36
2023/01/16 04:37:17;;;;;;;1.30;0.80;;;3.60;1.00;;;;;;5058082;28;20605;-36
2023/01/16 04:39:44;;;;;;;1.97;1.00;;;3.60;1.00;;;;;;5058226;28;20196;-36
2023/01/16 04:42:10;;;;;;;1.87;0.70;;;3.60;1.00;;;;;;5058202;28;20412;-37
2023/01/16 04:44:36;;;;;;;3.60;0.80;;;3.50;1.00;;;;;;5057316;28;20836;-36
2023/01/16 04:47:02;;;;;;;1.40;0.80;;;3.50;1.00;;;;;;5058806;28;20408;-36
2023/01/16 04:49:27;;;;;;;1.70;0.80;;;3.60;1.00;;;;;;5059220;28;20420;-36
2023/01/16 04:51:53;;;;;;;1.83;0.97;;;3.50;1.00;;;;;;5073198;28;20279;-37
2023/01/16 04:54:20;;;;;;;2.30;0.93;;;3.50;1.00;;;;;;5057798;28;20251;-37
2023/01/16 04:56:45;;;;;;;2.37;0.83;;;3.50;1.00;;;;;;5056199;28;20703;-36
2023/01/16 04:59:12;;;;;;;1.50;0.90;;;3.50;1.00;;;;;;5055491;28;20499;-39
2023/01/16 05:01:39;;;;;;;2.50;0.80;;;3.50;1.00;;;;;;5056006;28;20185;-37
2023/01/16 05:04:06;;;;;;;2.10;0.90;;;3.50;1.00;;;;;;5054929;28;20419;-36
2023/01/16 05:06:32;;;;;;;2.27;0.90;;;3.50;1.00;;;;;;5055926;28;20443;-38
2023/01/16 05:08:58;;;;;;;2.70;0.90;;;3.50;1.00;;;;;;5056363;28;20478;-36
2023/01/16 05:11:24;;;;;;;3.57;0.90;;;3.50;1.00;;;;;;5056630;28;20486;-36
2023/01/16 05:13:50;;;;;;;1.43;0.80;;;3.50;1.00;;;;;;5058050;28;20429;-36
2023/01/16 05:16:16;;;;;;;3.67;0.93;;;3.50;1.00;;;;;;5056777;28;20440;-37
2023/01/16 05:18:41;;;;;;;2.30;0.90;;;3.50;1.00;;;;;;5057457;28;20229;-37
2023/01/16 05:21:07;;;;;;;2.37;0.83;;;3.50;1.00;;;;;;5057186;28;20182;-36
2023/01/16 05:23:34;;;;;;;1.60;0.90;;;3.50;1.00;;;;;;5057905;28;20169;-37
2023/01/16 05:26:00;;;;;;;1.00;0.70;;;3.50;1.00;;;;;;5056806;28;20205;-36
2023/01/16 05:28:26;;;;;;;6.63;0.97;;;3.50;1.00;;;;;;5057878;28;20408;-36
2023/01/16 05:30:52;;;;;;;2.80;1.00;;;3.50;1.00;;;;;;5057981;28;20439;-37
2023/01/16 05:33:18;;;;;;;2.50;1.23;;;3.50;1.00;;;;;;5061785;28;20178;-37
2023/01/16 05:35:45;;;;;;;4.13;1.13;;;3.50;1.00;;;;;;5071752;28;20207;-37
2023/01/16 05:38:11;;;;;;;1.20;0.70;;;3.50;1.00;;;;;;5063858;28;20482;-37
2023/01/16 05:40:37;;;;;;;3.40;1.50;;;3.50;99.90;;;;;;5056810;28;20864;-37
2023/01/16 05:43:03;;;;;;;1.83;0.83;;;3.50;99.90;;;;;;5058275;28;20169;-37
2023/01/16 05:45:28;;;;;;;2.23;1.00;;;3.50;99.90;;;;;;5057734;28;20176;-37
2023/01/16 05:47:54;;;;;;;2.03;0.70;;;3.50;99.90;;;;;;5075095;28;20422;-37
2023/01/16 05:50:20;;;;;;;3.27;1.13;;;3.50;99.90;;;;;;5062395;28;20189;-37
2023/01/16 05:52:45;;;;;;;1.73;0.70;;;3.50;99.90;;;;;;5071681;28;20242;-37
2023/01/16 05:55:11;;;;;;;2.10;0.73;;;3.50;99.90;;;;;;5073577;28;20207;-37
2023/01/16 05:57:37;;;;;;;1.83;0.83;;;3.50;99.90;;;;;;5063909;28;20248;-36
2023/01/16 06:00:04;;;;;;;1.90;0.80;;;3.50;99.90;;;;;;5057320;28;20183;-36
2023/01/16 06:02:29;;;;;;;1.47;0.87;;;3.50;99.90;;;;;;5063086;28;20239;-36
2023/01/16 06:04:55;;;;;;;1.63;0.93;;;3.50;99.90;;;;;;5055511;28;20735;-37
2023/01/16 06:07:21;;;;;;;3.00;1.13;;;3.50;99.90;;;;;;5056382;28;20177;-37
2023/01/16 06:09:47;;;;;;;1.93;0.83;;;3.50;99.90;;;;;;5056082;28;20185;-38
2023/01/16 06:12:43;;;;;;;2.20;1.00;;;3.50;99.90;;;;;;5054951;28;20317;-37
2023/01/16 06:15:09;;;;;;;2.10;0.70;;;3.50;99.90;;;;;;5050553;28;20319;-37
2023/01/16 06:17:35;;;;;;;1.83;0.90;;;3.50;99.90;;;;;;5052587;28;20918;-37
2023/01/16 06:20:00;;;;;;;2.03;0.73;;;3.50;98.70;;;;;;5052447;28;20557;-37
2023/01/16 06:22:26;;;;;;;1.70;1.33;;;3.50;86.80;;;;;;5051634;28;20217;-37
2023/01/16 06:24:52;;;;;;;1.80;0.90;;;3.50;77.60;;;;;;5064188;28;20177;-37
2023/01/16 06:27:18;;;;;;;2.40;1.10;;;3.50;65.00;;;;;;5071954;28;20914;-36
2023/01/16 06:29:44;;;;;;;1.53;0.80;;;3.60;48.50;;;;;;5072915;28;20431;-37
2023/01/16 06:32:09;;;;;;;1.23;0.83;;;3.60;13.50;;;;;;5069885;28;20168;-38
2023/01/16 06:34:35;;;;;;;3.13;1.70;;;3.60;1.00;;;;;;5071699;28;20461;-37
2023/01/16 06:37:01;;;;;;;2.37;1.30;;;3.60;1.00;;;;;;5057126;28;20206;-37
2023/01/16 06:39:26;;;;;;;3.43;1.33;;;3.60;1.00;;;;;;5031958;28;20167;-38
2023/01/16 06:41:52;;;;;;;2.20;1.10;;;3.70;1.00;;;;;;5030579;28;20608;-37
2023/01/16 06:44:18;;;;;;;3.20;1.20;;;3.70;1.00;;;;;;5030626;28;20240;-38
2023/01/16 06:46:43;;;;;;;1.37;0.90;;;3.70;1.00;;;;;;5031377;28;20324;-38
2023/01/16 06:49:10;;;;;;;1.33;0.83;;;3.70;1.00;;;;;;5029885;28;20162;-38
2023/01/16 06:51:36;;;;;;;6.13;1.17;;;3.70;1.00;;;;;;5029235;28;20175;-36
2023/01/16 06:54:02;;;;;;;5.60;1.03;;;3.80;1.00;;;;;;5030345;28;20516;-36
2023/01/16 06:56:29;;;;;;;1.20;0.80;;;3.80;1.00;;;;;;5031321;28;20182;-38
2023/01/16 06:58:55;;;;;;;3.80;1.10;;;3.70;1.00;;;;;;5028791;28;20489;-39
2023/01/16 07:01:21;;;;;;;4.20;1.03;;;3.70;1.00;;;;;;5029811;28;20639;-37
2023/01/16 07:03:46;;;;;;;2.67;0.87;;;3.80;1.00;;;;;;5031416;28;21014;-39
2023/01/16 07:06:15;;;;;;;1.37;0.90;;;3.80;1.00;;;;;;5036974;28;20178;-39
2023/01/16 07:08:40;;;;;;;3.00;1.13;;;3.80;1.00;;;;;;5036479;28;20174;-38
2023/01/16 07:11:08;;;;;;;2.03;0.80;;;3.90;1.00;;;;;;5036638;28;20424;-38
2023/01/16 07:13:34;;;;;;;2.13;1.10;;;3.90;1.00;;;;;;5036510;28;20191;-38
2023/01/16 07:24:18;;;;;;;2.60;1.10;;;3.90;1.00;;;;;;5058317;28;20473;-47
2023/01/16 07:26:47;;;;;;;2.53;1.20;;;4.00;1.00;;;;;;5056058;28;20470;-37
2023/01/16 07:29:12;;;;;;;2.70;1.27;;;4.00;99.90;;;;;;5058763;28;20413;-37
2023/01/16 07:31:38;;;;;;;1.47;0.90;;;4.10;99.90;;;;;;5059178;28;20455;-39
2023/01/16 07:34:04;;;;;;;2.20;0.90;;;4.10;99.90;;;;;;5059414;28;20162;-37
2023/01/16 07:36:29;;;;;;;3.50;1.00;;;4.10;99.90;;;;;;5058553;28;20205;-39
2023/01/16 07:38:55;;;;;;;3.23;0.90;;;4.20;99.90;;;;;;5057317;28;20213;-36
2023/01/16 07:41:20;;;;;;;1.37;0.77;;;4.20;99.90;;;;;;5057146;28;20185;-37
2023/01/16 07:43:46;;;;;;;2.13;0.90;;;4.20;99.90;;;;;;5056724;28;20162;-49
2023/01/16 07:46:12;;;;;;;1.13;0.70;;;4.30;99.90;;;;;;5055215;28;20174;-37
2023/01/16 07:48:37;;;;;;;4.70;1.00;;;4.30;99.90;;;;;;5057048;28;20170;-37
2023/01/16 07:51:04;;;;;;;2.60;0.87;;;4.40;99.90;;;;;;5057832;28;20596;-37
2023/01/16 07:53:30;;;;;;;1.53;0.67;;;4.50;99.90;;;;;;5057716;28;20173;-37
2023/01/16 07:55:58;;;;;;;1.80;0.97;;;4.50;99.90;;;;;;5058350;28;20428;-37
2023/01/16 07:58:24;;;;;;;2.17;0.90;;;4.50;99.90;;;;;;5058157;28;20466;-37
2023/01/16 08:00:53;;;;;;;2.50;1.30;;;4.60;99.90;;;;;;5058478;28;20428;-37
2023/01/16 08:03:19;;;;;;;3.47;1.50;;;4.60;99.90;;;;;;5058192;28;20503;-37
2023/01/16 08:05:44;;;;;;;1.50;1.10;;;4.60;99.90;;;;;;5057739;28;20514;-37
2023/01/16 08:08:11;;;;;;;1.97;1.27;;;4.70;99.90;;;;;;5057159;28;20417;-38
2023/01/16 08:10:36;;;;;;;2.27;1.43;;;4.70;99.90;;;;;;5056645;28;20438;-37
2023/01/16 08:13:02;;;;;;;3.00;1.83;;;4.70;99.90;;;;;;5058015;28;20848;-39
2023/01/16 08:15:28;;;;;;;3.67;1.60;;;4.70;99.90;;;;;;5057894;28;20477;-37
2023/01/16 08:17:54;;;;;;;1.53;1.13;;;4.80;99.90;;;;;;5057526;28;20691;-37
2023/01/16 08:20:21;;;;;;;2.80;1.50;;;4.80;99.90;;;;;;5057829;28;20577;-40
2023/01/16 08:22:49;;;;;;;3.57;2.00;;;4.80;99.90;;;;;;5057097;28;20415;-37
2023/01/16 08:25:16;;;;;;;2.63;1.50;;;4.80;99.90;;;;;;5057266;28;20442;-36
2023/01/16 08:27:42;;;;;;;3.53;1.40;;;4.80;99.90;;;;;;5058682;28;20412;-37
2023/01/16 08:30:09;;;;;;;2.10;1.40;;;4.80;99.90;;;;;;5058134;28;20703;-37
2023/01/16 08:32:35;;;;;;;1.80;1.50;;;4.80;99.90;;;;;;5057640;28;20422;-37
2023/01/16 08:35:03;;;;;;;10.33;1.60;;;4.80;99.90;;;;;;5058076;28;20436;-38
2023/01/16 08:37:29;;;;;;;5.73;1.37;;;4.80;99.90;;;;;;5055388;28;20201;-36
2023/01/16 08:39:55;;;;;;;2.60;1.53;;;4.80;99.90;;;;;;5056491;28;20423;-36
2023/01/16 08:53:17;;;;;;;2.03;1.77;;;4.80;99.90;;;;;;5054998;28;20465;-38
2023/01/16 08:55:43;;;;;;;2.17;1.20;;;4.80;99.90;;;;;;5055130;28;20440;-37
2023/01/16 08:58:08;;;;;;;7.30;1.50;;;4.80;98.10;;;;;;5056651;28;20209;-38
2023/01/16 09:00:34;;;;;;;2.03;1.60;;;4.80;95.80;;;;;;5057139;28;20186;-37
2023/01/16 09:03:01;;;;;;;2.33;1.30;;;4.80;93.90;;;;;;5056719;28;20464;-37
2023/01/16 09:05:27;;;;;;;1.80;1.20;;;4.80;92.30;;;;;;5057020;28;20174;-37
2023/01/16 09:07:53;;;;;;;1.83;1.10;;;4.80;90.90;;;;;;5058340;28;20832;-37
2023/01/16 09:10:19;;;;;;;2.27;1.37;;;4.80;90.20;;;;;;5058016;28;20502;-38
2023/01/16 09:15:29;;;;;;;4.23;1.60;;;4.80;89.60;;;;;;5057311;28;20509;-38
2023/01/16 09:17:55;;;;;;;2.70;1.50;;;4.90;88.90;;;;;;5056379;28;20468;-39
2023/01/16 09:20:21;;;;;;;2.00;1.30;;;4.80;90.00;;;;;;5057861;28;20182;-38
2023/01/16 09:22:46;;;;;;;2.00;1.10;;;4.90;88.50;;;;;;5057338;28;20334;-44
2023/01/16 09:25:12;;;;;;;1.70;1.00;;;4.90;67.20;;;;;;5057543;28;20524;-38
2023/01/16 09:27:37;;;;;;;1.70;1.10;;;4.90;56.30;;;;;;5054896;28;20165;-37
2023/01/16 09:30:04;;;;;;;2.43;0.90;;;5.00;51.30;;;;;;5056860;28;20193;-38
2023/01/16 09:32:30;;;;;;;1.67;0.90;;;5.00;48.40;;;;;;5057803;28;20176;-37
2023/01/16 09:34:56;;;;;;;2.30;1.20;;;5.20;42.80;;;;;;5056972;28;20433;-40
2023/01/16 09:37:22;;;;;;;1.40;0.80;;;5.20;27.10;;;;;;5056041;28;20460;-38
2023/01/16 09:39:47;;;;;;;2.30;0.90;;;5.30;24.00;;;;;;5056133;28;20260;-37
2023/01/16 09:45:28;;;;;;;2.00;0.80;;;5.60;14.00;;;;;;5057658;28;20189;-38
2023/01/16 09:48:01;;;;;;;2.20;0.83;;;5.80;3.30;;;;;;5055971;28;20490;-39
2023/01/16 09:50:37;;;;;;;1.90;1.10;;;5.90;1.00;;;;;;5056329;28;20428;-38
2023/01/16 09:58:40;;;;;;;1.40;0.83;;;6.20;1.00;;;;;;5055734;28;20526;-37
2023/01/16 10:01:36;;;;;;;2.00;1.30;;;6.20;1.00;;;;;;5054429;28;20439;-38
2023/01/16 10:04:31;;;;;;;2.00;1.10;;;6.30;1.00;;;;;;5054633;28;20905;-38
2023/01/16 10:07:26;;;;;;;2.80;1.73;;;6.20;1.00;;;;;;5041765;28;20444;-39
2023/01/16 10:10:16;;;;;;;2.83;1.40;;;6.10;1.00;;;;;;5027109;28;20856;-37
2023/01/16 10:12:53;;;;;;;2.33;1.20;;;6.10;1.00;;;;;;5055502;28;20407;-38
2023/01/16 10:15:24;;;;;;;2.33;1.20;;;6.10;1.00;;;;;;5052944;28;20416;-38
2023/01/16 10:18:29;;;;;;;1.60;1.43;;;6.20;1.00;;;;;;5053355;28;20534;-38
2023/01/16 10:21:28;;;;;;;1.70;1.17;;;6.10;1.00;;;;;;5055971;28;20855;-38
2023/01/16 10:24:02;;;;;;;2.40;0.97;;;6.10;1.00;;;;;;5057544;28;20432;-38
2023/01/16 10:26:29;;;;;;;1.93;1.00;;;6.10;1.00;;;;;;5056523;28;20424;-38
2023/01/16 10:29:13;;;;;;;2.43;1.37;;;6.10;1.00;;;;;;5057857;28;20428;-38
2023/01/16 10:31:42;;;;;;;2.60;1.40;;;6.10;1.00;;;;;;5053306;28;20526;-38
2023/01/16 10:34:15;;;;;;;1.70;1.10;;;6.10;1.00;;;;;;5051175;28;20914;-40
2023/01/16 10:36:47;;;;;;;2.40;1.40;;;6.10;1.00;;;;;;5051587;28;20470;-38
2023/01/16 10:39:15;;;;;;;1.97;1.07;;;6.10;1.00;;;;;;5054298;28;20435;-38
2023/01/16 10:50:15;;;;;;;1.57;0.80;;;6.10;1.00;;;;;;5059141;28;20423;-38
2023/01/16 10:52:41;;;;;;;1.10;0.70;;;6.10;1.00;;;;;;5058680;28;20440;-37
2023/01/16 10:55:08;;;;;;;1.33;0.60;;;6.10;1.00;;;;;;5057072;28;20466;-38
2023/01/16 10:57:34;;;;;;;1.20;0.60;;;6.10;1.00;;;;;;5055302;28;20201;-37
2023/01/16 11:00:17;;;;;;;4.20;0.80;;;6.20;1.00;;;;;;5058086;28;20817;-37
2023/01/16 11:02:46;;;;;;;1.80;0.70;;;6.30;1.00;;;;;;5057433;28;20561;-37
2023/01/16 11:05:30;;;;;;;1.83;0.97;;;6.60;1.00;;;;;;5058736;28;20451;-37
2023/01/16 11:08:19;;;;;;;2.40;0.73;;;7.50;1.00;;;;;;5060073;28;20411;-36
2023/01/16 11:10:47;;;;;;;1.60;0.80;;;8.20;1.00;;;;;;5060049;28;20450;-36
2023/01/16 11:18:58;;;;;;;1.20;0.83;;;9.90;99.90;;;;;;5055548;28;20475;-36
2023/01/16 11:21:26;;;;;;;3.83;0.97;;;10.30;1.00;;;;;;5053885;28;20708;-36
2023/01/16 11:24:00;;;;;;;1.63;0.70;;;10.60;99.90;;;;;;5054621;28;20477;-37
2023/01/16 11:26:27;;;;;;;1.17;1.00;;;10.90;1.00;;;;;;5055716;28;20464;-39
2023/01/16 11:28:53;;;;;;;2.73;0.87;;;11.00;3.80;;;;;;5054956;28;20427;-38
2023/01/16 11:31:30;;;;;;;1.20;0.67;;;10.70;34.50;;;;;;5053281;28;20432;-38
2023/01/16 11:34:04;;;;;;;1.23;0.60;;;10.30;1.00;;;;;;5055962;28;20486;-38
2023/01/16 11:36:35;;;;;;;1.20;0.60;;;9.90;1.00;;;;;;5056380;28;20436;-37
2023/01/16 11:39:01;;;;;;;1.60;0.70;;;9.50;1.00;;;;;;5057566;28;20542;-38
2023/01/16 11:41:34;;;;;;;1.70;0.83;;;9.20;1.00;;;;;;5055636;28;20855;-37
2023/01/16 11:47:04;;;;;;;1.20;0.60;;;8.70;1.00;;;;;;5056361;28;20505;-38
2023/01/16 11:49:44;;;;;;;1.00;0.60;;;8.60;1.00;;;;;;5056352;28;20405;-36
2023/01/16 11:52:27;;;;;;;3.57;1.10;;;8.50;1.00;;;;;;5058601;28;20928;-37
2023/01/16 11:55:04;;;;;;;1.67;0.63;;;8.50;1.00;;;;;;5055888;28;20480;-38
2023/01/16 11:57:50;;;;;;;1.80;0.73;;;8.40;1.00;;;;;;5056520;28;20770;-42
2023/01/16 12:00:36;;;;;;;1.47;0.70;;;8.40;1.00;;;;;;5057862;28;20447;-38
2023/01/16 12:03:18;;;;;;;1.17;0.50;;;8.40;1.00;;;;;;5055170;28;20506;-37
2023/01/16 12:06:02;;;;;;;1.00;0.53;;;8.50;1.00;;;;;;5057197;28;20460;-40
2023/01/16 12:09:06;;;;;;;2.60;0.60;;;8.60;1.00;;;;;;5057264;28;20481;-38
2023/01/16 12:14:17;;;;;;;1.30;0.80;;;8.60;1.00;;;;;;5033482;28;20485;-37
2023/01/16 12:14:53;;;;;;;1.40;0.70;;;8.50;1.00;;;;;;5054885;28;20436;-35
2023/01/16 12:17:55;;;;;;;0.90;0.57;;;8.50;1.00;;;;;;5057647;28;20507;-37
2023/01/16 12:20:35;;;;;;;1.90;1.00;;;8.50;1.00;;;;;;5055433;28;20451;-37
2023/01/16 12:23:25;;;;;;;2.70;1.03;;;8.50;1.00;;;;;;5053699;28;20432;-36
2023/01/16 12:26:22;;;;;;;1.67;0.80;;;8.40;1.00;;;;;;5053910;28;20831;-37
2023/01/16 12:29:05;;;;;;;1.13;0.67;;;8.30;1.00;;;;;;5052889;28;20417;-37
2023/01/16 12:31:50;;;;;;;1.73;1.03;;;8.20;1.00;;;;;;5054266;28;20420;-37
2023/01/16 12:34:16;;;;;;;2.10;0.87;;;8.20;1.00;;;;;;5055645;28;20407;-36
2023/01/16 12:36:47;;;;;;;1.23;1.00;;;8.10;3.40;;;;;;5056544;28;20427;-37
2023/01/16 12:39:22;;;;;;;1.67;1.13;;;8.10;8.70;;;;;;5052907;28;20170;-38
2023/01/16 12:45:33;;;;;;;1.10;0.80;;;8.40;18.00;;;;;;5054169;28;20454;-38
2023/01/16 12:48:14;;;;;;;1.07;0.70;;;8.50;1.60;;;;;;5052877;28;20505;-38
2023/01/16 12:51:11;;;;;;;0.80;0.40;;;8.50;1.00;;;;;;5052935;28;20423;-38
2023/01/16 12:53:59;;;;;;;0.90;0.40;;;8.50;1.00;;;;;;5036793;28;20511;-37
2023/01/16 12:57:02;;;;;;;1.13;0.70;;;8.60;1.00;;;;;;5059958;28;20443;-37
2023/01/16 12:59:51;;;;;;;1.67;0.57;;;8.60;2.40;;;;;;5062858;28;20548;-36
2023/01/16 13:02:19;;;;;;;1.53;0.60;;;8.80;1.00;;;;;;5064586;28;20432;-37
2023/01/16 13:04:53;;;;;;;0.90;0.50;;;9.00;1.00;;;;;;5062003;28;20420;-37
2023/01/16 13:07:19;;;;;;;0.93;0.60;;;9.10;1.00;;;;;;5072203;28;20419;-37
2023/01/16 13:16:13;;;;;;;1.20;0.60;;;10.00;1.00;;;;;;5035988;28;20443;-37
2023/01/16 13:18:43;;;;;;;1.00;0.70;;;10.70;1.00;;;;;;5048261;28;20503;-40
2023/01/16 13:21:33;;;;;;;0.90;0.47;;;11.80;1.00;;;;;;5056414;28;20963;-38
2023/01/16 13:24:16;;;;;;;1.43;0.57;;;13.10;1.00;;;;;;5055306;28;20427;-37
2023/01/16 13:26:44;;;;;;;0.90;0.50;;;14.20;1.00;;;;;;5056402;28;20443;-37
2023/01/16 13:29:20;;;;;;;2.03;0.70;;;14.70;1.00;;;;;;5055937;28;20416;-38
2023/01/16 13:31:50;;;;;;;0.80;0.40;;;15.70;1.00;;;;;;5055339;28;20719;-38
2023/01/16 13:34:31;;;;;;;1.10;0.60;;;16.10;1.00;;;;;;5054752;28;20422;-38
2023/01/16 13:37:14;;;;;;;0.97;0.40;;;16.00;1.00;;;;;;5054885;28;20601;-37
2023/01/16 13:40:14;;;;;;;1.00;0.50;;;15.60;1.00;;;;;;5054702;28;20404;-38
2023/01/16 13:45:55;;;;;;;1.00;0.50;;;15.10;1.00;;;;;;5054001;28;20415;-36
2023/01/16 13:48:28;;;;;;;1.20;0.70;;;15.00;1.00;;;;;;5054535;28;20503;-36
2023/01/16 13:51:02;;;;;;;1.33;0.70;;;15.00;1.00;;;;;;5054588;28;20582;-36
2023/01/16 13:53:31;;;;;;;1.63;0.40;;;14.80;1.00;;;;;;5050527;28;20413;-37
2023/01/16 13:56:08;;;;;;;1.37;0.50;;;15.20;1.00;;;;;;5050356;28;20736;-38
2023/01/16 13:58:39;;;;;;;0.90;0.50;;;15.20;1.00;;;;;;5053074;28;20463;-37
2023/01/16 14:01:06;;;;;;;1.03;0.37;;;14.90;1.00;;;;;;5035967;28;20453;-38
2023/01/16 14:03:34;;;;;;;0.90;0.40;;;14.30;1.00;;;;;;5031438;28;20436;-38
2023/01/16 14:06:12;;;;;;;1.13;0.60;;;13.80;1.00;;;;;;5032295;28;20437;-37
2023/01/16 14:09:08;;;;;;;0.87;0.43;;;13.30;1.00;;;;;;5034929;28;20435;-39
2023/01/16 14:11:40;;;;;;;1.00;0.50;;;12.60;1.00;;;;;;5032699;28;20715;-38
2023/01/16 14:17:17;;;;;;;0.87;0.43;;;11.30;1.00;;;;;;5035113;28;20468;-39
2023/01/16 14:19:56;;;;;;;1.20;0.50;;;10.80;1.00;;;;;;5034448;28;20422;-37
2023/01/16 14:25:27;;;;;;;1.10;0.63;;;10.90;1.00;;;;;;5034892;28;20451;-37
2023/01/16 14:27:54;;;;;;;0.70;0.40;;;10.80;1.00;;;;;;5036111;28;20410;-38
2023/01/16 14:30:25;;;;;;;1.13;0.40;;;10.50;1.00;;;;;;5034930;28;20413;-38
2023/01/16 14:32:54;;;;;;;0.80;0.40;;;10.00;1.00;;;;;;5033074;28;20722;-37